Time;durP1;ratioP1;P1;durP2;ratioP2;P2;SDS_P1;SDS_P2;PMS_P1;PMS_P2;Temp;Humidity;BMP_temperature;BMP_pressure;BME280_temperature;BME280_humidity;BME280_pressure;Samples;Min_cycle;Max_cycle;Signal;HPM_P1;HPM_P2
2021/04/26 00:00:47;;;;;;;5.70;2.75;;;;;;;4.44;68.97;101992.56;5030062;28;20478;-83
2021/04/26 00:03:13;;;;;;;7.13;2.67;;;;;;;4.43;68.92;101996.13;5036712;28;20043;-78
2021/04/26 00:05:38;;;;;;;4.70;2.55;;;;;;;4.38;69.27;101993.78;5013275;28;20480;-81
2021/04/26 00:08:04;;;;;;;7.22;2.80;;;;;;;4.37;69.32;101996.53;5013819;28;20040;-82
2021/04/26 00:10:30;;;;;;;4.75;2.70;;;;;;;4.29;70.18;101995.19;5040773;28;20075;-78
2021/04/26 00:12:56;;;;;;;4.70;2.65;;;;;;;4.25;69.49;101988.34;5041256;28;20041;-81
2021/04/26 00:15:24;;;;;;;4.47;2.55;;;;;;;4.21;69.07;101992.16;5036384;28;20045;-80
2021/04/26 00:17:50;;;;;;;4.47;2.60;;;;;;;4.26;69.96;101982.09;5048727;28;20032;-84
2021/04/26 00:20:18;;;;;;;5.68;2.72;;;;;;;4.23;69.89;101987.63;5010375;28;20080;-84
2021/04/26 00:22:43;;;;;;;4.35;2.40;;;;;;;4.21;69.58;101986.84;5048503;28;20392;-81
2021/04/26 00:25:10;;;;;;;4.55;2.85;;;;;;;4.17;69.40;101985.34;5011342;28;20048;-81
2021/04/26 00:27:36;;;;;;;5.18;2.90;;;;;;;4.15;69.52;101984.56;5042979;28;20048;-79
2021/04/26 00:30:06;;;;;;;5.45;2.80;;;;;;;4.13;69.78;101983.78;5012792;28;20037;-77
2021/04/26 00:32:31;;;;;;;5.20;2.47;;;;;;;4.07;70.06;101979.72;5041674;28;20515;-83
2021/04/26 00:34:56;;;;;;;5.93;3.00;;;;;;;4.08;69.87;101980.56;5050988;28;20033;-77
2021/04/26 00:37:22;;;;;;;5.18;2.60;;;;;;;4.00;70.45;101974.84;5031864;28;20041;-79
2021/04/26 00:39:47;;;;;;;6.32;2.53;;;;;;;3.95;70.60;101977.81;5034102;28;20047;-78
2021/04/26 00:42:12;;;;;;;6.60;3.03;;;;;;;3.95;70.36;101972.50;5031055;28;20037;-80
2021/04/26 00:44:38;;;;;;;4.18;2.53;;;;;;;3.91;70.40;101964.78;5048571;28;20119;-80
2021/04/26 00:47:04;;;;;;;4.88;2.67;;;;;;;3.82;70.23;101975.00;5042593;28;20044;-79
2021/04/26 00:49:29;;;;;;;4.47;2.50;;;;;;;3.85;70.08;101966.00;5025326;28;20040;-84
2021/04/26 00:51:54;;;;;;;4.93;2.97;;;;;;;3.84;71.42;101970.47;5048004;28;20049;-79
2021/04/26 00:54:20;;;;;;;5.30;2.70;;;;;;;3.84;71.37;101972.28;5026822;28;20045;-76
2021/04/26 00:56:45;;;;;;;5.80;2.47;;;;;;;3.76;70.73;101970.06;5024458;28;20512;-82
2021/04/26 00:59:11;;;;;;;7.20;2.88;;;;;;;3.75;71.14;101963.06;5021992;28;20044;-84
2021/04/26 01:01:37;;;;;;;3.50;2.30;;;;;;;3.72;71.01;101962.41;5046787;28;20056;-82
2021/04/26 01:04:03;;;;;;;6.57;2.50;;;;;;;3.69;70.74;101963.44;5016902;28;20501;-77
2021/04/26 01:06:28;;;;;;;4.78;2.30;;;;;;;3.66;71.69;101960.97;5020376;28;20054;-78
2021/04/26 01:08:54;;;;;;;6.82;2.70;;;;;;;3.62;71.21;101962.06;5020578;28;20067;-86
2021/04/26 01:11:25;;;;;;;6.32;3.05;;;;;;;3.58;71.95;101956.09;5046247;28;20041;-84
2021/04/26 01:14:05;;;;;;;4.90;2.30;;;;;;;3.54;71.22;101953.69;5048035;28;20067;-84
2021/04/26 01:16:39;;;;;;;4.68;2.80;;;;;;;3.48;71.62;101948.75;5029245;28;20131;-81
2021/04/26 01:19:17;;;;;;;5.93;2.42;;;;;;;3.53;71.79;101952.00;5028540;28;20083;-79
2021/04/26 01:22:20;;;;;;;4.70;2.60;;;;;;;3.47;71.57;101953.22;5055110;28;20024;-80
2021/04/26 01:25:07;;;;;;;5.88;2.90;;;;;;;3.43;71.76;101950.84;5031535;28;20099;-83
2021/04/26 01:27:41;;;;;;;4.80;2.70;;;;;;;3.35;71.92;101949.47;5012178;28;20619;-79
2021/04/26 01:30:06;;;;;;;4.78;2.17;;;;;;;3.35;71.92;101944.16;5042981;28;20553;-83
2021/04/26 01:32:56;;;;;;;7.07;2.58;;;;;;;3.34;72.07;101942.47;5052416;28;20155;-81
2021/04/26 01:35:23;;;;;;;4.95;2.65;;;;;;;3.27;72.08;101942.91;5028848;28;20068;-81
2021/04/26 01:37:57;;;;;;;4.63;2.75;;;;;;;3.23;72.06;101934.28;5026672;28;20086;-80
2021/04/26 01:40:25;;;;;;;5.35;2.67;;;;;;;3.26;72.45;101941.22;5044996;28;20075;-84
2021/04/26 01:42:54;;;;;;;6.10;2.70;;;;;;;3.23;72.43;101942.25;5049964;28;20052;-79
2021/04/26 01:45:21;;;;;;;4.95;2.47;;;;;;;3.21;72.89;101932.66;5053119;28;20048;-76
2021/04/26 01:47:47;;;;;;;8.73;2.80;;;;;;;3.18;72.78;101936.34;5045032;28;20045;-76
2021/04/26 01:50:14;;;;;;;5.28;2.83;;;;;;;3.10;72.81;101930.63;5028568;28;20037;-77
2021/04/26 01:52:40;;;;;;;7.15;2.70;;;;;;;3.03;73.10;101931.94;5015262;28;20121;-83
2021/04/26 01:55:08;;;;;;;5.82;2.45;;;;;;;2.99;72.95;101925.06;5048330;28;20037;-83
2021/04/26 01:57:36;;;;;;;4.90;3.00;;;;;;;2.96;73.08;101933.19;5052160;28;20059;-81
2021/04/26 02:00:16;;;;;;;8.38;3.10;;;;;;;2.89;73.70;101930.06;5054081;28;20029;-78
2021/04/26 02:02:46;;;;;;;6.15;2.97;;;;;;;2.83;73.21;101925.94;5005541;28;20369;-78
2021/04/26 02:05:13;;;;;;;4.97;2.88;;;;;;;2.79;73.85;101921.78;5051660;28;20041;-79
2021/04/26 02:07:42;;;;;;;4.90;2.60;;;;;;;2.70;73.63;101919.63;5025212;28;20053;-79
2021/04/26 02:10:08;;;;;;;4.82;2.50;;;;;;;2.74;73.88;101920.31;5045659;28;20032;-79
2021/04/26 02:12:34;;;;;;;6.38;2.95;;;;;;;2.70;74.04;101914.31;5031307;28;20060;-78
2021/04/26 02:15:03;;;;;;;5.75;2.70;;;;;;;2.62;73.76;101911.25;5032636;28;20037;-84
2021/04/26 02:17:29;;;;;;;5.13;3.28;;;;;;;2.51;74.59;101913.66;5019559;28;20049;-84
2021/04/26 02:19:55;;;;;;;7.47;2.83;;;;;;;2.53;75.40;101909.09;5051785;28;20492;-79
2021/04/26 02:22:21;;;;;;;7.30;2.88;;;;;;;2.54;74.57;101901.09;5026580;28;20060;-82
2021/04/26 02:24:46;;;;;;;5.55;3.08;;;;;;;2.52;75.36;101897.66;5028168;28;20065;-81
2021/04/26 02:27:12;;;;;;;8.43;2.80;;;;;;;2.46;75.14;101906.78;5044763;28;20152;-79
2021/04/26 02:29:37;;;;;;;7.97;3.40;;;;;;;2.42;75.61;101901.78;5020743;28;20152;-81
2021/04/26 02:32:08;;;;;;;7.43;3.00;;;;;;;2.37;75.40;101902.00;5054937;28;20132;-78
2021/04/26 02:34:41;;;;;;;5.07;3.08;;;;;;;2.33;75.60;101899.59;5045181;28;20040;-83
2021/04/26 02:37:25;;;;;;;6.72;3.05;;;;;;;2.27;75.58;101892.84;5052928;28;20091;-81
2021/04/26 02:39:53;;;;;;;8.45;2.90;;;;;;;2.22;76.24;101892.25;5033006;28;20051;-80
2021/04/26 02:42:18;;;;;;;5.90;2.90;;;;;;;2.10;75.93;101888.50;5039881;28;20074;-82
2021/04/26 02:44:45;;;;;;;6.68;3.03;;;;;;;2.16;76.40;101882.84;5038644;28;20037;-84
2021/04/26 02:47:16;;;;;;;7.15;2.97;;;;;;;2.05;76.52;101877.28;5027923;28;20055;-81
2021/04/26 02:49:44;;;;;;;5.72;2.75;;;;;;;2.01;76.29;101884.53;5031631;28;20045;-76
2021/04/26 02:52:12;;;;;;;7.47;3.40;;;;;;;2.03;76.76;101877.34;5052193;28;20041;-77
2021/04/26 02:54:40;;;;;;;9.65;3.28;;;;;;;2.04;76.70;101875.56;5048753;28;20044;-82
2021/04/26 02:57:07;;;;;;;5.53;2.80;;;;;;;2.05;76.92;101881.72;5031198;28;20048;-77
2021/04/26 02:59:33;;;;;;;4.68;2.95;;;;;;;2.03;77.23;101872.06;5027747;28;20045;-79
2021/04/26 03:01:58;;;;;;;7.00;3.25;;;;;;;2.04;76.96;101878.19;5034666;28;20482;-77
2021/04/26 03:04:29;;;;;;;6.20;2.90;;;;;;;2.07;76.82;101871.88;5027614;28;20057;-80
2021/04/26 03:06:56;;;;;;;6.85;3.25;;;;;;;1.96;76.79;101875.13;5026804;28;20103;-78
2021/04/26 03:09:23;;;;;;;5.07;2.80;;;;;;;1.87;77.05;101870.31;5044024;28;20140;-82
2021/04/26 03:11:51;;;;;;;6.70;2.80;;;;;;;1.82;77.18;101862.63;5043829;28;20045;-80
2021/04/26 03:14:19;;;;;;;5.05;2.95;;;;;;;1.85;77.26;101854.53;5042032;28;20037;-80
2021/04/26 03:16:47;;;;;;;4.88;2.90;;;;;;;1.77;77.24;101856.72;5034515;28;20059;-79
2021/04/26 03:19:13;;;;;;;7.18;3.17;;;;;;;1.77;77.60;101856.72;5029769;28;20090;-77
2021/04/26 03:21:42;;;;;;;6.07;2.88;;;;;;;1.64;77.35;101863.59;5050905;28;20118;-80
2021/04/26 03:24:08;;;;;;;6.22;3.30;;;;;;;1.69;77.83;101853.63;5042590;28;20048;-79
2021/04/26 03:26:34;;;;;;;7.88;3.55;;;;;;;1.75;78.07;101853.28;5062146;28;20037;-77
2021/04/26 03:29:01;;;;;;;7.35;3.08;;;;;;;1.65;78.14;101858.22;5014782;28;20134;-79
2021/04/26 03:31:27;;;;;;;7.80;3.58;;;;;;;1.70;77.47;101858.00;5057272;28;20186;-81
2021/04/26 03:33:53;;;;;;;5.75;2.65;;;;;;;1.67;78.14;101845.78;5052419;28;20061;-78
2021/04/26 03:36:21;;;;;;;5.88;3.38;;;;;;;1.73;78.12;101852.53;5040593;28;20047;-81
2021/04/26 03:38:49;;;;;;;6.67;3.53;;;;;;;1.72;77.52;101846.38;5049477;28;20037;-80
2021/04/26 03:41:15;;;;;;;5.75;3.03;;;;;;;1.66;77.82;101854.63;5046741;28;20319;-77
2021/04/26 03:43:44;;;;;;;8.93;3.65;;;;;;;1.54;77.96;101860.56;5048214;28;20397;-76
2021/04/26 03:46:10;;;;;;;7.60;3.25;;;;;;;1.61;78.10;101858.44;5046192;28;20090;-80
2021/04/26 03:48:35;;;;;;;4.55;2.80;;;;;;;1.60;77.55;101856.75;5049080;28;20044;-78
2021/04/26 03:51:02;;;;;;;5.95;3.05;;;;;;;1.57;78.56;101852.47;5031306;28;20044;-80
2021/04/26 03:53:27;;;;;;;7.00;2.95;;;;;;;1.55;78.33;101842.00;5029418;28;20084;-74
2021/04/26 03:55:52;;;;;;;7.63;3.40;;;;;;;1.56;77.83;101841.03;5051136;28;20133;-80
2021/04/26 03:58:18;;;;;;;9.38;3.42;;;;;;;1.51;78.28;101843.06;5032875;28;20511;-76
2021/04/26 04:00:43;;;;;;;7.82;3.30;;;;;;;1.51;78.84;101847.50;5049481;28;20032;-82
2021/04/26 04:03:10;;;;;;;7.97;3.30;;;;;;;1.49;78.38;101844.06;5047774;28;20052;-77
2021/04/26 04:05:39;;;;;;;6.80;3.40;;;;;;;1.42;78.50;101843.56;5049576;28;20063;-74
2021/04/26 04:08:05;;;;;;;9.68;3.53;;;;;;;1.32;78.95;101843.19;5061484;28;20040;-82
2021/04/26 04:10:31;;;;;;;8.52;3.63;;;;;;;1.30;79.68;101844.19;5057197;28;20032;-81
2021/04/26 04:12:56;;;;;;;9.95;3.67;;;;;;;1.24;79.82;101840.06;5050259;28;20060;-75
2021/04/26 04:15:22;;;;;;;7.85;3.45;;;;;;;1.26;79.73;101842.63;5050300;28;20085;-78
2021/04/26 04:17:47;;;;;;;10.40;4.05;;;;;;;1.27;79.80;101839.91;5025912;28;20044;-76
2021/04/26 04:20:13;;;;;;;9.02;4.10;;;;;;;1.23;79.26;101838.34;5045266;28;20057;-82
2021/04/26 04:22:39;;;;;;;9.45;3.70;;;;;;;1.21;79.76;101837.59;5032453;28;20037;-79
2021/04/26 04:25:05;;;;;;;10.00;3.65;;;;;;;1.16;79.55;101834.31;5027190;28;20081;-75
2021/04/26 04:27:31;;;;;;;10.40;3.67;;;;;;;1.13;80.13;101835.31;5058490;28;20489;-78
2021/04/26 04:29:56;;;;;;;11.48;3.90;;;;;;;1.10;80.49;101843.41;5035401;28;20053;-78
2021/04/26 04:32:22;;;;;;;10.27;3.92;;;;;;;1.12;80.10;101830.97;5047720;28;22399;-77
2021/04/26 04:34:47;;;;;;;8.57;3.83;;;;;;;1.02;80.53;101835.00;5015329;28;20123;-79
2021/04/26 04:37:12;;;;;;;10.02;4.10;;;;;;;0.94;81.09;101836.31;5021060;28;20060;-80
2021/04/26 04:39:38;;;;;;;9.63;3.97;;;;;;;0.97;81.45;101839.66;5042297;28;20409;-77
2021/04/26 04:42:04;;;;;;;12.45;3.97;;;;;;;0.93;81.90;101837.28;5045836;28;20398;-77
2021/04/26 04:44:29;;;;;;;7.65;3.90;;;;;;;0.91;81.77;101834.69;5046441;28;20115;-81
2021/04/26 04:46:55;;;;;;;9.80;4.13;;;;;;;0.97;81.61;101834.38;5051649;28;20094;-80
2021/04/26 04:49:20;;;;;;;9.98;3.80;;;;;;;0.93;81.92;101827.53;5037475;28;20452;-84
2021/04/26 04:51:45;;;;;;;8.38;4.13;;;;;;;1.04;81.57;101827.00;5049384;28;20122;-83
2021/04/26 04:54:12;;;;;;;9.30;3.97;;;;;;;1.09;81.16;101823.22;5015713;28;20032;-79
2021/04/26 04:56:38;;;;;;;7.10;3.85;;;;;;;1.16;81.23;101825.53;5023541;28;20072;-79
2021/04/26 04:59:05;;;;;;;8.70;3.95;;;;;;;1.20;81.14;101822.63;5013667;28;20497;-79
2021/04/26 05:01:30;;;;;;;8.45;3.75;;;;;;;1.25;81.55;101830.34;5042560;28;20511;-78
2021/04/26 05:03:56;;;;;;;11.10;3.80;;;;;;;1.27;81.07;101824.03;5054478;28;20116;-79
2021/04/26 05:06:21;;;;;;;8.15;3.88;;;;;;;1.38;80.88;101817.31;5035371;28;20573;-81
2021/04/26 05:08:46;;;;;;;7.25;4.22;;;;;;;1.42;80.54;101825.03;5057827;28;20136;-81
2021/04/26 05:11:12;;;;;;;9.02;4.18;;;;;;;1.44;81.20;101815.25;5035934;28;20485;-81
2021/04/26 05:13:37;;;;;;;9.50;3.70;;;;;;;1.53;80.54;101814.75;5055419;28;20127;-80
2021/04/26 05:16:03;;;;;;;7.55;4.05;;;;;;;1.56;81.01;101819.03;5037429;28;20040;-82
2021/04/26 05:18:28;;;;;;;7.57;3.90;;;;;;;1.67;80.49;101821.97;5046704;28;20045;-77
2021/04/26 05:20:54;;;;;;;5.05;3.55;;;;;;;1.74;80.13;101819.84;5048003;28;20040;-82
2021/04/26 05:23:19;;;;;;;11.40;3.95;;;;;;;1.69;80.37;101813.91;5045782;28;20041;-79
2021/04/26 05:25:45;;;;;;;9.05;3.45;;;;;;;1.80;79.56;101809.75;5046876;28;20116;-82
2021/04/26 05:28:10;;;;;;;6.35;3.30;;;;;;;1.88;79.98;101814.66;5046239;28;20154;-82
2021/04/26 05:30:36;;;;;;;6.88;3.63;;;;;;;1.90;80.02;101809.25;5041337;28;20060;-81
2021/04/26 05:33:01;;;;;;;8.13;3.90;;;;;;;2.01;79.57;101806.88;5033264;28;20048;-78
2021/04/26 05:35:27;;;;;;;8.18;3.53;;;;;;;2.08;80.19;101810.06;5044965;28;20049;-80
2021/04/26 05:37:53;;;;;;;8.05;3.88;;;;;;;2.10;79.32;101803.75;5046595;28;20045;-81
2021/04/26 05:40:19;;;;;;;6.22;3.63;;;;;;;2.13;79.47;101808.00;5027086;28;20033;-79
2021/04/26 05:42:44;;;;;;;6.30;3.90;;;;;;;2.27;78.94;101808.09;5047962;28;20048;-78
2021/04/26 05:45:10;;;;;;;7.18;3.92;;;;;;;2.38;78.58;101808.34;5038672;28;20045;-76
2021/04/26 05:47:36;;;;;;;8.93;4.00;;;;;;;2.51;78.26;101811.16;5045684;28;20485;-78
2021/04/26 05:50:03;;;;;;;8.88;3.78;;;;;;;2.53;77.82;101817.19;5028523;28;20051;-78
2021/04/26 05:52:28;;;;;;;7.00;3.67;;;;;;;2.65;77.39;101811.22;5049236;28;20489;-77
2021/04/26 05:54:53;;;;;;;6.80;3.90;;;;;;;2.79;77.44;101812.22;5045292;28;20107;-79
2021/04/26 05:57:19;;;;;;;12.95;8.07;;;;;;;2.82;76.18;101810.25;5005690;28;20045;-81
2021/04/26 05:59:44;;;;;;;10.02;4.72;;;;;;;2.90;76.02;101807.97;5042153;28;20123;-79
2021/04/26 06:02:10;;;;;;;5.57;4.07;;;;;;;2.94;76.21;101806.88;5017404;28;20119;-80
2021/04/26 06:04:35;;;;;;;11.40;5.60;;;;;;;3.02;75.93;101809.09;5031962;28;20036;-81
2021/04/26 06:07:01;;;;;;;9.50;4.57;;;;;;;3.16;75.70;101813.53;5047154;28;20045;-75
2021/04/26 06:09:26;;;;;;;6.30;4.03;;;;;;;3.28;75.56;101815.50;5023389;28;20033;-79
2021/04/26 06:11:52;;;;;;;10.05;3.75;;;;;;;3.32;75.32;101816.16;5038775;28;20045;-82
2021/04/26 06:14:18;;;;;;;7.57;3.70;;;;;;;3.32;74.90;101814.34;5022513;28;20492;-81
2021/04/26 06:16:43;;;;;;;7.07;3.53;;;;;;;3.30;74.99;101804.78;5010738;28;20237;-81
2021/04/26 06:19:09;;;;;;;9.55;4.00;;;;;;;3.36;75.06;101810.56;5043250;28;20037;-78
2021/04/26 06:21:34;;;;;;;9.82;3.88;;;;;;;3.50;75.20;101812.38;5010413;28;20045;-78
2021/04/26 06:24:00;;;;;;;8.88;3.58;;;;;;;3.60;74.64;101810.88;5031334;28;20052;-82
2021/04/26 06:26:25;;;;;;;7.50;3.58;;;;;;;3.61;74.36;101801.09;5038333;28;20565;-79
2021/04/26 06:28:51;;;;;;;5.95;3.33;;;;;;;3.75;74.28;101809.06;5022865;28;20048;-81
2021/04/26 06:31:17;;;;;;;5.97;3.15;;;;;;;3.79;74.33;101807.91;5041678;28;20033;-80
2021/04/26 06:33:42;;;;;;;7.30;3.92;;;;;;;3.93;73.56;101807.06;5040229;28;20485;-84
2021/04/26 06:36:08;;;;;;;6.53;3.15;;;;;;;4.01;72.89;101796.81;5010869;28;20044;-81
2021/04/26 06:38:33;;;;;;;6.43;3.47;;;;;;;4.12;72.77;101798.78;5040061;28;20041;-80
2021/04/26 06:40:59;;;;;;;10.52;4.97;;;;;;;4.19;72.35;101802.75;5043805;28;20102;-82
2021/04/26 06:43:24;;;;;;;7.55;4.22;;;;;;;4.27;72.35;101808.44;5035190;28;20452;-82
2021/04/26 06:45:49;;;;;;;8.23;3.58;;;;;;;4.34;72.20;101800.91;5036226;28;20068;-78
2021/04/26 06:48:17;;;;;;;6.45;3.55;;;;;;;4.49;72.55;101793.75;5035070;28;20056;-80
2021/04/26 06:50:43;;;;;;;5.13;3.15;;;;;;;4.60;71.31;101791.22;5038538;28;20068;-79
2021/04/26 06:53:08;;;;;;;5.07;3.40;;;;;;;4.70;70.68;101787.00;5018600;28;20473;-83
2021/04/26 06:55:33;;;;;;;6.35;3.50;;;;;;;4.83;70.84;101786.19;5021574;28;20033;-78
2021/04/26 06:57:59;;;;;;;6.60;3.30;;;;;;;4.96;70.25;101787.94;5039578;28;20041;-77
2021/04/26 07:00:27;;;;;;;6.60;3.25;;;;;;;5.03;69.19;101782.19;5029823;28;20453;-84
2021/04/26 07:02:52;;;;;;;9.23;3.42;;;;;;;5.12;68.45;101782.44;5022945;28;20048;-85
2021/04/26 07:05:18;;;;;;;7.47;3.38;;;;;;;5.14;68.70;101777.84;5023437;28;20041;-82
2021/04/26 07:07:44;;;;;;;7.07;3.60;;;;;;;5.23;68.14;101768.38;5038723;28;20044;-82
2021/04/26 07:10:10;;;;;;;6.28;3.45;;;;;;;5.32;67.84;101778.41;5040956;28;20040;-77
2021/04/26 07:12:36;;;;;;;6.03;3.38;;;;;;;5.48;67.70;101772.84;5022290;28;20049;-81
2021/04/26 07:15:03;;;;;;;5.70;3.00;;;;;;;5.56;67.09;101775.81;5030653;28;20073;-86
2021/04/26 07:17:29;;;;;;;5.95;3.30;;;;;;;5.70;67.04;101780.19;5042723;28;20098;-84
2021/04/26 07:19:54;;;;;;;8.18;3.35;;;;;;;5.78;66.63;101779.63;5022033;28;20076;-80
2021/04/26 07:22:20;;;;;;;6.72;3.33;;;;;;;5.89;66.30;101774.38;5018507;28;20041;-82
2021/04/26 07:24:46;;;;;;;4.70;2.83;;;;;;;5.97;65.63;101768.53;5025997;28;20041;-79
2021/04/26 07:27:11;;;;;;;6.40;3.58;;;;;;;6.07;65.47;101766.91;5039581;28;20045;-76
2021/04/26 07:29:36;;;;;;;6.03;2.95;;;;;;;6.15;65.53;101766.34;5054446;28;20044;-77
2021/04/26 07:32:02;;;;;;;8.77;3.67;;;;;;;6.25;65.61;101772.72;5048687;28;20237;-75
2021/04/26 07:34:28;;;;;;;6.60;2.90;;;;;;;6.30;65.16;101770.56;5043044;28;20072;-78
2021/04/26 07:36:53;;;;;;;6.47;3.08;;;;;;;6.42;64.77;101775.00;5027755;28;20437;-80
2021/04/26 07:39:19;;;;;;;5.25;3.10;;;;;;;6.49;64.05;101770.91;5043470;28;20063;-79
2021/04/26 07:41:45;;;;;;;6.95;2.90;;;;;;;6.54;63.63;101771.41;5045301;28;20045;-87
2021/04/26 07:44:11;;;;;;;7.18;3.20;;;;;;;6.58;62.98;101774.69;5009032;28;20045;-76
2021/04/26 07:46:37;;;;;;;5.03;3.35;;;;;;;6.62;62.55;101769.97;5035979;28;20033;-83
2021/04/26 07:49:02;;;;;;;5.88;3.00;;;;;;;6.81;62.97;101767.63;5026648;28;20120;-79
2021/04/26 07:51:28;;;;;;;5.00;3.00;;;;;;;6.86;61.27;101767.31;5033823;28;20029;-76
2021/04/26 07:53:53;;;;;;;3.60;2.50;;;;;;;6.90;61.94;101768.75;5040575;28;20040;-78
2021/04/26 07:56:18;;;;;;;5.80;3.03;;;;;;;7.03;62.33;101763.34;5055072;28;20611;-87
2021/04/26 07:58:44;;;;;;;6.53;3.25;;;;;;;7.18;61.64;101767.50;5029633;28;20118;-83
2021/04/26 08:01:09;;;;;;;10.05;3.72;;;;;;;7.24;60.54;101764.34;5029844;28;20033;-86
2021/04/26 08:03:35;;;;;;;6.60;3.25;;;;;;;7.28;59.45;101763.16;5043680;28;20052;-83
2021/04/26 08:06:00;;;;;;;7.70;3.10;;;;;;;7.33;59.97;101762.78;5044974;28;20489;-83
2021/04/26 08:08:25;;;;;;;6.35;3.17;;;;;;;7.51;60.76;101753.34;5048068;28;20107;-77
2021/04/26 08:10:51;;;;;;;5.25;2.90;;;;;;;7.72;59.89;101758.81;5056771;28;20082;-77
2021/04/26 08:13:16;;;;;;;5.93;3.03;;;;;;;7.74;59.78;101756.88;5049926;28;20051;-84
2021/04/26 08:15:42;;;;;;;7.68;2.65;;;;;;;7.85;59.57;101754.19;5021033;28;20415;-76
2021/04/26 08:18:08;;;;;;;7.05;3.13;;;;;;;7.95;58.84;101756.13;5044339;28;20045;-80
2021/04/26 08:20:35;;;;;;;7.57;3.08;;;;;;;8.07;59.27;101755.13;5017644;28;20049;-77
2021/04/26 08:23:01;;;;;;;7.07;3.10;;;;;;;8.23;57.71;101746.69;5047634;28;20041;-77
2021/04/26 08:25:26;;;;;;;6.35;3.40;;;;;;;8.17;57.73;101740.06;5026965;28;20053;-80
2021/04/26 08:27:52;;;;;;;7.32;3.53;;;;;;;8.30;57.43;101745.22;5031767;28;20453;-85
2021/04/26 08:30:18;;;;;;;6.07;3.03;;;;;;;8.35;56.15;101737.69;5048712;28;20055;-79
2021/04/26 08:32:44;;;;;;;6.05;2.80;;;;;;;8.40;55.38;101737.31;5021250;28;20040;-84
2021/04/26 08:35:09;;;;;;;7.28;2.92;;;;;;;8.46;56.33;101736.81;5045903;28;20087;-87
2021/04/26 08:37:35;;;;;;;7.72;3.13;;;;;;;8.70;56.08;101732.09;5025843;28;20037;-77
2021/04/26 08:40:00;;;;;;;7.50;3.03;;;;;;;8.72;56.37;101735.50;5050906;28;20099;-78
2021/04/26 08:42:26;;;;;;;7.32;3.35;;;;;;;8.66;55.52;101724.44;5022062;28;20128;-82
2021/04/26 08:44:52;;;;;;;6.43;2.80;;;;;;;8.63;55.03;101728.25;5024276;28;20077;-82
2021/04/26 08:47:21;;;;;;;5.78;3.22;;;;;;;8.65;55.47;101726.25;5048976;28;20033;-83
2021/04/26 08:49:47;;;;;;;4.82;2.60;;;;;;;8.89;53.86;101735.88;5030460;28;20120;-82
2021/04/26 08:52:12;;;;;;;6.43;2.97;;;;;;;8.93;53.24;101734.66;5055527;28;20187;-81
2021/04/26 08:54:38;;;;;;;8.15;3.53;;;;;;;8.92;53.06;101724.91;5018435;28;20199;-82
2021/04/26 08:57:03;;;;;;;9.23;2.88;;;;;;;9.02;53.62;101729.34;5062340;28;20037;-75
2021/04/26 08:59:29;;;;;;;6.57;3.17;;;;;;;9.21;52.99;101725.09;5029755;28;20081;-79
2021/04/26 09:02:05;;;;;;;5.30;2.90;;;;;;;9.26;51.43;101723.72;5058395;28;20032;-81
2021/04/26 09:04:35;;;;;;;8.27;3.00;;;;;;;9.30;51.08;101718.94;5041650;28;20052;-81
2021/04/26 09:07:03;;;;;;;6.28;3.03;;;;;;;9.21;50.67;101715.22;5042052;28;20033;-83
2021/04/26 09:09:48;;;;;;;5.07;3.23;;;;;;;9.41;49.13;101712.66;5033498;28;20048;-84
2021/04/26 09:12:15;;;;;;;6.68;3.00;;;;;;;9.50;50.25;101709.16;5051544;28;21245;-79
2021/04/26 09:14:44;;;;;;;9.10;2.97;;;;;;;9.65;49.69;101702.44;5051214;28;20080;-82
2021/04/26 09:17:31;;;;;;;7.25;2.78;;;;;;;9.81;48.49;101688.53;5052502;28;20049;-80
2021/04/26 09:20:19;;;;;;;4.90;3.30;;;;;;;9.87;49.24;101695.19;5042754;28;20041;-83
2021/04/26 09:22:54;;;;;;;5.05;2.88;;;;;;;9.98;48.37;101697.72;5060352;28;20048;-80
2021/04/26 09:25:42;;;;;;;5.95;2.80;;;;;;;10.01;48.75;101705.50;5046725;28;20052;-82
2021/04/26 09:28:13;;;;;;;5.15;2.80;;;;;;;10.10;47.93;101702.00;5042197;28;20070;-83
2021/04/26 09:30:49;;;;;;;6.38;3.17;;;;;;;10.04;44.27;101699.88;5041302;28;20564;-82
2021/04/26 09:33:16;;;;;;;6.65;3.17;;;;;;;9.92;46.63;101690.22;5030385;28;20136;-81
2021/04/26 09:35:42;;;;;;;3.97;2.70;;;;;;;10.10;46.42;101685.91;5018509;28;20509;-80
2021/04/26 09:38:32;;;;;;;4.20;2.72;;;;;;;10.40;46.99;101686.78;5026022;28;20075;-83
2021/04/26 09:41:11;;;;;;;5.63;3.55;;;;;;;10.49;45.74;101688.63;5033227;28;20040;-85
2021/04/26 09:43:37;;;;;;;7.63;3.17;;;;;;;10.38;47.98;101678.03;5042947;28;20048;-81
2021/04/26 09:46:03;;;;;;;5.15;3.05;;;;;;;10.48;46.92;101668.16;5053843;28;20031;-82
2021/04/26 09:48:30;;;;;;;9.40;3.28;;;;;;;10.57;46.55;101667.28;5023378;28;20052;-83
2021/04/26 09:51:21;;;;;;;5.03;2.78;;;;;;;11.01;46.69;101664.09;5041457;28;20041;-86
2021/04/26 09:53:54;;;;;;;5.07;2.90;;;;;;;11.00;45.82;101674.00;5025474;28;20044;-80
2021/04/26 09:56:24;;;;;;;8.57;3.50;;;;;;;11.10;45.73;101679.31;5042106;28;20067;-80
2021/04/26 09:58:56;;;;;;;5.20;3.00;;;;;;;11.24;46.12;101669.94;5041330;28;20619;-83
2021/04/26 10:01:22;;;;;;;6.43;2.83;;;;;;;11.26;46.19;101665.28;5030699;28;20120;-85
2021/04/26 10:03:49;;;;;;;7.07;3.47;;;;;;;11.37;46.66;101659.72;5041118;28;20041;-78
2021/04/26 10:06:16;;;;;;;4.35;3.05;;;;;;;11.50;45.18;101656.69;5026898;28;20136;-86
2021/04/26 10:08:52;;;;;;;5.85;3.15;;;;;;;11.41;43.45;101647.66;5027046;28;20040;-76
2021/04/26 10:11:20;;;;;;;4.88;3.03;;;;;;;11.35;44.98;101648.28;5039339;28;20566;-78
2021/04/26 10:13:47;;;;;;;7.00;3.30;;;;;;;11.18;45.24;101652.59;5026393;28;20075;-82
2021/04/26 10:16:17;;;;;;;5.88;3.00;;;;;;;11.37;44.57;101646.28;5046791;28;20071;-76
2021/04/26 10:18:44;;;;;;;4.78;3.10;;;;;;;11.62;44.02;101642.03;5042457;28;20095;-80
2021/04/26 10:21:18;;;;;;;8.15;3.83;;;;;;;11.62;45.30;101646.56;5026612;28;20056;-78
2021/04/26 10:23:49;;;;;;;6.32;3.08;;;;;;;11.67;44.20;101638.91;5043663;28;20132;-78
2021/04/26 10:26:45;;;;;;;6.05;3.10;;;;;;;11.56;46.03;101644.50;5025290;28;20032;-77
2021/04/26 10:29:17;;;;;;;5.65;3.10;;;;;;;11.74;45.93;101634.63;5041405;28;20045;-84
2021/04/26 10:32:01;;;;;;;4.70;3.00;;;;;;;11.95;44.50;101626.31;5027195;28;20053;-81
2021/04/26 10:34:34;;;;;;;6.00;2.90;;;;;;;12.05;43.73;101627.06;5041333;28;20045;-80
2021/04/26 10:37:19;;;;;;;6.85;2.85;;;;;;;11.86;40.25;101628.06;5025801;28;20071;-84
2021/04/26 10:40:09;;;;;;;6.68;3.30;;;;;;;12.03;44.33;101622.84;5046917;28;20381;-83
2021/04/26 10:42:43;;;;;;;5.90;3.20;;;;;;;12.08;43.68;101628.59;5033103;28;20083;-78
2021/04/26 10:45:12;;;;;;;5.25;2.88;;;;;;;11.72;40.42;101624.00;5045133;28;20037;-86
2021/04/26 10:47:45;;;;;;;5.03;2.88;;;;;;;11.77;42.46;101620.00;5030620;28;20065;-87
2021/04/26 10:50:15;;;;;;;7.45;3.20;;;;;;;11.85;43.24;101620.09;5054715;28;20055;-81
2021/04/26 10:52:50;;;;;;;6.38;3.05;;;;;;;11.92;46.61;101614.00;5056339;28;20136;-82
2021/04/26 10:55:18;;;;;;;7.80;3.22;;;;;;;11.89;43.06;101608.94;5024401;28;20402;-79
2021/04/26 10:57:48;;;;;;;6.10;3.90;;;;;;;12.00;42.78;101612.38;5029180;28;20064;-82
2021/04/26 11:00:29;;;;;;;6.80;3.40;;;;;;;11.82;42.56;101598.91;5052737;28;20037;-77
2021/04/26 11:02:59;;;;;;;5.13;3.00;;;;;;;11.73;42.90;101592.59;5053368;28;20080;-81
2021/04/26 11:05:39;;;;;;;6.20;2.90;;;;;;;11.78;43.82;101592.16;5016781;28;20095;-80
2021/04/26 11:08:34;;;;;;;4.80;2.90;;;;;;;11.95;43.06;101583.28;5029971;28;20052;-85
2021/04/26 11:11:28;;;;;;;8.23;3.17;;;;;;;12.11;43.08;101566.41;5004166;28;20041;-81
2021/04/26 11:13:54;;;;;;;6.32;3.45;;;;;;;12.17;42.45;101588.19;5016605;28;20063;-80
2021/04/26 11:16:27;;;;;;;6.00;3.22;;;;;;;12.29;42.60;101567.25;5050794;28;20036;-87
2021/04/26 11:19:05;;;;;;;5.30;2.95;;;;;;;12.28;40.70;101560.16;5056186;28;20033;-79
2021/04/26 11:21:47;;;;;;;5.45;2.97;;;;;;;12.20;41.44;101565.50;5055604;28;20548;-77
2021/04/26 11:24:38;;;;;;;5.05;2.80;;;;;;;12.01;42.27;101561.13;5043037;28;20132;-83
2021/04/26 11:27:16;;;;;;;7.55;3.13;;;;;;;12.13;40.71;101549.13;5030110;28;20040;-78
2021/04/26 11:29:44;;;;;;;5.20;3.50;;;;;;;12.01;43.21;101546.84;5040789;28;20047;-78
2021/04/26 11:32:15;;;;;;;5.00;2.78;;;;;;;12.13;42.90;101534.81;5037864;28;20056;-83
2021/04/26 11:34:53;;;;;;;5.70;2.92;;;;;;;12.22;42.25;101528.50;5046074;28;20128;-85
2021/04/26 11:37:26;;;;;;;5.07;2.90;;;;;;;12.57;44.12;101524.88;5053132;28;20071;-80